sensor_id;sensor_type;location;lat;lon;timestamp;pressure;altitude;pressure_sealevel;temperature;humidity
65157;BME280;52745;49.794;18.258;2023-02-02T00:01:27;-16010.25;;;2.73;78.28
65157;BME280;52745;49.794;18.258;2023-02-02T00:03:55;-16010.09;;;2.72;78.17
65157;BME280;52745;49.794;18.258;2023-02-02T00:06:26;-16009.56;;;2.70;78.33
65157;BME280;52745;49.794;18.258;2023-02-02T00:08:55;-16009.97;;;2.72;78.97
65157;BME280;52745;49.794;18.258;2023-02-02T00:11:23;-16008.19;;;2.65;79.50
65157;BME280;52745;49.794;18.258;2023-02-02T00:13:50;-16011.34;;;2.77;79.36
65157;BME280;52745;49.794;18.258;2023-02-02T00:19:06;-16009.16;;;2.68;80.13
65157;BME280;52745;49.794;18.258;2023-02-02T00:21:33;-16009.97;;;2.72;80.30
65157;BME280;52745;49.794;18.258;2023-02-02T00:24:00;-16008.34;;;2.65;80.68
65157;BME280;52745;49.794;18.258;2023-02-02T00:26:28;-16007.91;;;2.64;81.54
65157;BME280;52745;49.794;18.258;2023-02-02T00:28:54;-16007.38;;;2.62;81.54
65157;BME280;52745;49.794;18.258;2023-02-02T00:31:21;-16007.25;;;2.61;82.05
65157;BME280;52745;49.794;18.258;2023-02-02T00:33:49;-16006.16;;;2.57;82.52
65157;BME280;52745;49.794;18.258;2023-02-02T00:36:17;-16003.69;;;2.48;83.22
65157;BME280;52745;49.794;18.258;2023-02-02T00:38:46;-16005.31;;;2.54;83.32
65157;BME280;52745;49.794;18.258;2023-02-02T00:41:13;-16004.63;;;2.52;83.25
65157;BME280;52745;49.794;18.258;2023-02-02T00:43:40;-16003.53;;;2.47;83.84
65157;BME280;52745;49.794;18.258;2023-02-02T00:46:16;-16005.19;;;2.54;83.63
65157;BME280;52745;49.794;18.258;2023-02-02T00:48:43;-16006.16;;;2.57;83.09
65157;BME280;52745;49.794;18.258;2023-02-02T00:51:10;-16005.72;;;2.56;83.81
65157;BME280;52745;49.794;18.258;2023-02-02T00:53:37;-16003.94;;;2.49;83.45
65157;BME280;52745;49.794;18.258;2023-02-02T00:56:04;-16005.03;;;2.53;83.24
65157;BME280;52745;49.794;18.258;2023-02-02T00:58:31;-16005.31;;;2.54;83.01
65157;BME280;52745;49.794;18.258;2023-02-02T01:00:58;-16003.94;;;2.49;82.90
65157;BME280;52745;49.794;18.258;2023-02-02T01:03:24;-16001.91;;;2.41;83.63
65157;BME280;52745;49.794;18.258;2023-02-02T01:05:51;-16001.75;;;2.41;83.51
65157;BME280;52745;49.794;18.258;2023-02-02T01:08:18;-16001.50;;;2.40;83.31
65157;BME280;52745;49.794;18.258;2023-02-02T01:10:45;-16002.31;;;2.43;83.55
65157;BME280;52745;49.794;18.258;2023-02-02T01:13:11;-16003.41;;;2.47;83.59
65157;BME280;52745;49.794;18.258;2023-02-02T01:15:38;-16003.28;;;2.46;82.77
65157;BME280;52745;49.794;18.258;2023-02-02T01:18:05;-16004.09;;;2.49;82.83
65157;BME280;52745;49.794;18.258;2023-02-02T01:20:32;-16002.84;;;2.45;82.38
65157;BME280;52745;49.794;18.258;2023-02-02T01:22:58;-16003.69;;;2.48;82.61
65157;BME280;52745;49.794;18.258;2023-02-02T01:25:25;-16003.69;;;2.48;81.92
65157;BME280;52745;49.794;18.258;2023-02-02T01:27:52;-16003.00;;;2.45;81.95
65157;BME280;52745;49.794;18.258;2023-02-02T01:30:20;-16003.13;;;2.46;82.56
65157;BME280;52745;49.794;18.258;2023-02-02T01:32:48;-16003.41;;;2.47;82.08
65157;BME280;52745;49.794;18.258;2023-02-02T01:35:14;-16005.03;;;2.53;81.60
65157;BME280;52745;49.794;18.258;2023-02-02T01:37:41;-16004.78;;;2.52;81.38
65157;BME280;52745;49.794;18.258;2023-02-02T01:40:09;-16005.47;;;2.55;81.17
65157;BME280;52745;49.794;18.258;2023-02-02T01:42:36;-16004.09;;;2.49;81.12
65157;BME280;52745;49.794;18.258;2023-02-02T01:47:42;-16005.59;;;2.55;81.47
65157;BME280;52745;49.794;18.258;2023-02-02T01:50:12;-16005.31;;;2.54;80.96
65157;BME280;52745;49.794;18.258;2023-02-02T01:52:42;-16005.59;;;2.55;80.91
65157;BME280;52745;49.794;18.258;2023-02-02T01:55:13;-16003.53;;;2.47;81.78
65157;BME280;52745;49.794;18.258;2023-02-02T01:57:53;-16005.72;;;2.56;81.51
65157;BME280;52745;49.794;18.258;2023-02-02T02:00:23;-16003.28;;;2.46;81.52
65157;BME280;52745;49.794;18.258;2023-02-02T02:02:56;-16004.22;;;2.50;81.76
65157;BME280;52745;49.794;18.258;2023-02-02T02:05:28;-16004.91;;;2.53;81.27
65157;BME280;52745;49.794;18.258;2023-02-02T02:08:01;-16004.22;;;2.50;81.20
65157;BME280;52745;49.794;18.258;2023-02-02T02:10:29;-16005.03;;;2.53;81.10
65157;BME280;52745;49.794;18.258;2023-02-02T02:12:57;-16006.28;;;2.58;80.94
65157;BME280;52745;49.794;18.258;2023-02-02T02:15:26;-16007.78;;;2.63;80.92
65157;BME280;52745;49.794;18.258;2023-02-02T02:18:58;-16011.75;;;2.78;80.52
65157;BME280;52745;49.794;18.258;2023-02-02T02:21:49;-16009.97;;;2.72;80.28
65157;BME280;52745;49.794;18.258;2023-02-02T02:30:22;-16009.69;;;2.71;80.38
65157;BME280;52745;49.794;18.258;2023-02-02T02:33:05;-16007.25;;;2.61;81.11
65157;BME280;52745;49.794;18.258;2023-02-02T02:36:02;-16009.03;;;2.68;80.76
65157;BME280;52745;49.794;18.258;2023-02-02T02:38:46;-16011.06;;;2.76;80.61
65157;BME280;52745;49.794;18.258;2023-02-02T02:41:20;-16012.72;;;2.82;80.27
65157;BME280;52745;49.794;18.258;2023-02-02T02:43:58;-16012.44;;;2.81;80.09
65157;BME280;52745;49.794;18.258;2023-02-02T02:46:26;-16012.16;;;2.80;80.05
65157;BME280;52745;49.794;18.258;2023-02-02T02:48:57;-16009.69;;;2.71;80.63
65157;BME280;52745;49.794;18.258;2023-02-02T02:51:47;-16010.09;;;2.72;80.86
65157;BME280;52745;49.794;18.258;2023-02-02T02:54:40;-16011.75;;;2.78;81.00
65157;BME280;52745;49.794;18.258;2023-02-02T03:03:10;-16010.53;;;2.74;80.86
65157;BME280;52745;49.794;18.258;2023-02-02T03:10:40;-16012.16;;;2.80;80.48
65157;BME280;52745;49.794;18.258;2023-02-02T03:13:11;-16010.81;;;2.75;80.46
65157;BME280;52745;49.794;18.258;2023-02-02T03:15:45;-16009.16;;;2.68;80.61
65157;BME280;52745;49.794;18.258;2023-02-02T03:18:14;-16009.69;;;2.71;80.71
65157;BME280;52745;49.794;18.258;2023-02-02T03:20:43;-16009.84;;;2.71;80.60
65157;BME280;52745;49.794;18.258;2023-02-02T03:23:11;-16009.97;;;2.72;80.97
65157;BME280;52745;49.794;18.258;2023-02-02T03:25:38;-16009.69;;;2.71;81.20
65157;BME280;52745;49.794;18.258;2023-02-02T03:28:05;-16008.47;;;2.66;81.27
65157;BME280;52745;49.794;18.258;2023-02-02T03:30:33;-16005.59;;;2.55;82.21
65157;BME280;52745;49.794;18.258;2023-02-02T03:33:00;-16004.78;;;2.52;82.49
65157;BME280;52745;49.794;18.258;2023-02-02T03:35:27;-16003.28;;;2.46;82.77
65157;BME280;52745;49.794;18.258;2023-02-02T03:37:53;-16003.69;;;2.48;82.73
65157;BME280;52745;49.794;18.258;2023-02-02T03:40:20;-16001.22;;;2.39;83.00
65157;BME280;52745;49.794;18.258;2023-02-02T03:42:47;-16004.50;;;2.51;82.69
65157;BME280;52745;49.794;18.258;2023-02-02T03:45:14;-16005.47;;;2.55;82.44
65157;BME280;52745;49.794;18.258;2023-02-02T03:47:41;-16004.22;;;2.50;81.98
65157;BME280;52745;49.794;18.258;2023-02-02T03:50:08;-16004.50;;;2.51;82.41
65157;BME280;52745;49.794;18.258;2023-02-02T03:52:35;-16002.72;;;2.44;82.57
65157;BME280;52745;49.794;18.258;2023-02-02T03:55:02;-16005.03;;;2.53;82.27
65157;BME280;52745;49.794;18.258;2023-02-02T03:57:29;-16005.03;;;2.53;82.17
65157;BME280;52745;49.794;18.258;2023-02-02T03:59:56;-16004.50;;;2.51;82.22
65157;BME280;52745;49.794;18.258;2023-02-02T04:02:22;-16001.91;;;2.41;81.99
65157;BME280;52745;49.794;18.258;2023-02-02T04:04:49;-16001.22;;;2.39;82.40
65157;BME280;52745;49.794;18.258;2023-02-02T04:07:16;-16002.03;;;2.42;82.49
65157;BME280;52745;49.794;18.258;2023-02-02T04:09:43;-15999.56;;;2.33;82.82
65157;BME280;52745;49.794;18.258;2023-02-02T04:12:09;-16000.94;;;2.38;82.55
65157;BME280;52745;49.794;18.258;2023-02-02T04:14:36;-15999.16;;;2.31;82.85
65157;BME280;52745;49.794;18.258;2023-02-02T04:17:03;-15997.94;;;2.26;83.05
65157;BME280;52745;49.794;18.258;2023-02-02T04:19:30;-15996.16;;;2.20;82.78
65157;BME280;52745;49.794;18.258;2023-02-02T04:21:56;-15997.38;;;2.24;82.73
65157;BME280;52745;49.794;18.258;2023-02-02T04:24:23;-15998.34;;;2.28;82.75
65157;BME280;52745;49.794;18.258;2023-02-02T04:26:50;-15998.47;;;2.28;82.41
65157;BME280;52745;49.794;18.258;2023-02-02T04:29:17;-16000.66;;;2.37;82.14
65157;BME280;52745;49.794;18.258;2023-02-02T04:31:43;-15998.47;;;2.28;82.49
65157;BME280;52745;49.794;18.258;2023-02-02T04:34:10;-15999.16;;;2.31;81.92
65157;BME280;52745;49.794;18.258;2023-02-02T04:36:37;-15998.06;;;2.27;82.12
65157;BME280;52745;49.794;18.258;2023-02-02T04:39:04;-15998.19;;;2.27;82.19
65157;BME280;52745;49.794;18.258;2023-02-02T04:41:31;-15999.72;;;2.33;82.10
65157;BME280;52745;49.794;18.258;2023-02-02T04:43:58;-15997.94;;;2.26;82.23
65157;BME280;52745;49.794;18.258;2023-02-02T04:46:25;-15997.38;;;2.24;82.20
65157;BME280;52745;49.794;18.258;2023-02-02T04:48:53;-15997.09;;;2.23;82.06
65157;BME280;52745;49.794;18.258;2023-02-02T04:51:20;-15996.84;;;2.22;82.06
65157;BME280;52745;49.794;18.258;2023-02-02T04:53:47;-15996.16;;;2.20;82.16
65157;BME280;52745;49.794;18.258;2023-02-02T04:56:15;-15995.72;;;2.18;82.29
65157;BME280;52745;49.794;18.258;2023-02-02T04:58:43;-15996.28;;;2.20;81.94
65157;BME280;52745;49.794;18.258;2023-02-02T05:01:19;-15996.00;;;2.19;82.01
65157;BME280;52745;49.794;18.258;2023-02-02T05:03:47;-15996.84;;;2.22;81.87
65157;BME280;52745;49.794;18.258;2023-02-02T05:06:14;-15998.88;;;2.30;81.64
65157;BME280;52745;49.794;18.258;2023-02-02T05:08:42;-15998.88;;;2.30;81.55
65157;BME280;52745;49.794;18.258;2023-02-02T05:11:11;-15997.38;;;2.24;81.74
65157;BME280;52745;49.794;18.258;2023-02-02T05:13:38;-15996.69;;;2.22;81.76
65157;BME280;52745;49.794;18.258;2023-02-02T05:16:05;-15996.00;;;2.19;81.81
65157;BME280;52745;49.794;18.258;2023-02-02T05:18:32;-15996.69;;;2.22;81.83
65157;BME280;52745;49.794;18.258;2023-02-02T05:21:00;-15996.28;;;2.20;82.52
65157;BME280;52745;49.794;18.258;2023-02-02T05:23:29;-15997.09;;;2.23;82.25
65157;BME280;52745;49.794;18.258;2023-02-02T05:25:56;-15996.56;;;2.21;82.22
65157;BME280;52745;49.794;18.258;2023-02-02T05:28:23;-15997.25;;;2.24;82.22
65157;BME280;52745;49.794;18.258;2023-02-02T05:30:50;-15997.78;;;2.26;82.27
65157;BME280;52745;49.794;18.258;2023-02-02T05:33:17;-15996.41;;;2.21;81.98
65157;BME280;52745;49.794;18.258;2023-02-02T05:35:48;-15998.63;;;2.29;82.02
65157;BME280;52745;49.794;18.258;2023-02-02T05:38:15;-15998.34;;;2.28;81.79
65157;BME280;52745;49.794;18.258;2023-02-02T05:40:42;-15997.25;;;2.24;82.02
65157;BME280;52745;49.794;18.258;2023-02-02T05:43:09;-15998.75;;;2.30;81.53
65157;BME280;52745;49.794;18.258;2023-02-02T05:45:35;-15999.16;;;2.31;81.33
65157;BME280;52745;49.794;18.258;2023-02-02T05:48:02;-15999.56;;;2.33;81.44
65157;BME280;52745;49.794;18.258;2023-02-02T05:50:29;-16001.06;;;2.38;81.17
65157;BME280;52745;49.794;18.258;2023-02-02T05:53:04;-16000.94;;;2.38;81.22
65157;BME280;52745;49.794;18.258;2023-02-02T05:55:30;-16000.94;;;2.38;80.96
65157;BME280;52745;49.794;18.258;2023-02-02T05:57:57;-16001.22;;;2.39;80.84
65157;BME280;52745;49.794;18.258;2023-02-02T06:00:24;-16002.31;;;2.43;80.80
65157;BME280;52745;49.794;18.258;2023-02-02T06:02:51;-16001.50;;;2.40;81.19
65157;BME280;52745;49.794;18.258;2023-02-02T06:05:17;-16001.63;;;2.40;81.18
65157;BME280;52745;49.794;18.258;2023-02-02T06:07:44;-16000.66;;;2.37;81.20
65157;BME280;52745;49.794;18.258;2023-02-02T06:10:11;-16001.50;;;2.40;81.26
65157;BME280;52745;49.794;18.258;2023-02-02T06:12:38;-16000.94;;;2.38;81.76
65157;BME280;52745;49.794;18.258;2023-02-02T06:15:05;-16000.38;;;2.36;81.65
65157;BME280;52745;49.794;18.258;2023-02-02T06:17:32;-15998.75;;;2.30;82.02
65157;BME280;52745;49.794;18.258;2023-02-02T06:19:58;-15999.28;;;2.32;82.11
65157;BME280;52745;49.794;18.258;2023-02-02T06:22:25;-16001.50;;;2.40;81.29
65157;BME280;52745;49.794;18.258;2023-02-02T06:24:52;-16002.59;;;2.44;80.74
65157;BME280;52745;49.794;18.258;2023-02-02T06:27:19;-16001.22;;;2.39;80.44
65157;BME280;52745;49.794;18.258;2023-02-02T06:29:46;-16002.03;;;2.42;80.70
65157;BME280;52745;49.794;18.258;2023-02-02T06:32:13;-16001.75;;;2.41;80.49
65157;BME280;52745;49.794;18.258;2023-02-02T06:34:40;-16002.31;;;2.43;79.94
65157;BME280;52745;49.794;18.258;2023-02-02T06:37:07;-16003.41;;;2.47;80.23
65157;BME280;52745;49.794;18.258;2023-02-02T06:39:33;-16004.91;;;2.53;79.69
65157;BME280;52745;49.794;18.258;2023-02-02T06:42:00;-16006.28;;;2.58;79.55
65157;BME280;52745;49.794;18.258;2023-02-02T06:44:27;-16006.69;;;2.59;79.29
65157;BME280;52745;49.794;18.258;2023-02-02T06:46:55;-16005.31;;;2.54;79.32
65157;BME280;52745;49.794;18.258;2023-02-02T06:49:21;-16013.25;;;2.84;83.31
65157;BME280;52745;49.794;18.258;2023-02-02T06:51:48;-16012.31;;;2.80;80.84
65157;BME280;52745;49.794;18.258;2023-02-02T06:54:15;-16021.06;;;3.13;80.73
65157;BME280;52745;49.794;18.258;2023-02-02T06:56:42;-16022.56;;;3.19;78.94
65157;BME280;52745;49.794;18.258;2023-02-02T06:59:09;-16018.47;;;3.03;78.09
65157;BME280;52745;49.794;18.258;2023-02-02T07:01:35;-16016.81;;;2.97;78.03
65157;BME280;52745;49.794;18.258;2023-02-02T07:04:02;-16024.22;;;3.25;81.18
65157;BME280;52745;49.794;18.258;2023-02-02T07:06:29;-16021.75;;;3.16;78.62
65157;BME280;52745;49.794;18.258;2023-02-02T07:08:56;-16018.19;;;3.02;77.42
65157;BME280;52745;49.794;18.258;2023-02-02T07:11:23;-16015.72;;;2.93;77.54
65157;BME280;52745;49.794;18.258;2023-02-02T07:13:49;-16014.63;;;2.89;77.73
65157;BME280;52745;49.794;18.258;2023-02-02T07:16:17;-16014.75;;;2.89;77.48
65157;BME280;52745;49.794;18.258;2023-02-02T07:18:44;-16014.09;;;2.87;77.60
65157;BME280;52745;49.794;18.258;2023-02-02T07:21:21;-16013.66;;;2.85;76.92
65157;BME280;52745;49.794;18.258;2023-02-02T07:23:49;-16014.34;;;2.88;77.30
65157;BME280;52745;49.794;18.258;2023-02-02T07:26:17;-16014.91;;;2.90;77.60
65157;BME280;52745;49.794;18.258;2023-02-02T07:28:44;-16015.72;;;2.93;77.42
65157;BME280;52745;49.794;18.258;2023-02-02T07:33:43;-16015.59;;;2.93;76.50
65157;BME280;52745;49.794;18.258;2023-02-02T07:36:12;-16016.13;;;2.95;77.04
65157;BME280;52745;49.794;18.258;2023-02-02T07:38:42;-16013.81;;;2.86;77.60
65157;BME280;52745;49.794;18.258;2023-02-02T07:41:09;-16015.31;;;2.92;76.88
65157;BME280;52745;49.794;18.258;2023-02-02T07:43:35;-16016.81;;;2.97;76.74
65157;BME280;52745;49.794;18.258;2023-02-02T07:46:04;-16015.19;;;2.91;76.73
65157;BME280;52745;49.794;18.258;2023-02-02T07:48:33;-16016.81;;;2.97;76.91
65157;BME280;52745;49.794;18.258;2023-02-02T07:51:02;-16014.34;;;2.88;77.31
65157;BME280;52745;49.794;18.258;2023-02-02T07:53:29;-16015.31;;;2.92;76.66
65157;BME280;52745;49.794;18.258;2023-02-02T07:58:37;-16014.63;;;2.89;76.76
65157;BME280;52745;49.794;18.258;2023-02-02T08:01:06;-16016.53;;;2.96;76.75
65157;BME280;52745;49.794;18.258;2023-02-02T08:03:34;-16018.19;;;3.02;76.35
65157;BME280;52745;49.794;18.258;2023-02-02T08:06:08;-16016.81;;;2.97;76.63
65157;BME280;52745;49.794;18.258;2023-02-02T08:08:35;-16017.09;;;2.98;76.50
65157;BME280;52745;49.794;18.258;2023-02-02T08:11:02;-16020.38;;;3.10;75.89
65157;BME280;52745;49.794;18.258;2023-02-02T08:13:29;-16020.09;;;3.09;76.15
65157;BME280;52745;49.794;18.258;2023-02-02T08:15:57;-16020.09;;;3.09;76.10
65157;BME280;52745;49.794;18.258;2023-02-02T08:18:23;-16018.19;;;3.02;76.37
65157;BME280;52745;49.794;18.258;2023-02-02T08:20:51;-16018.06;;;3.02;76.28
65157;BME280;52745;49.794;18.258;2023-02-02T08:23:18;-16018.19;;;3.02;76.50
65157;BME280;52745;49.794;18.258;2023-02-02T08:25:49;-16017.09;;;2.98;76.58
65157;BME280;52745;49.794;18.258;2023-02-02T08:28:17;-16018.47;;;3.03;76.55
65157;BME280;52745;49.794;18.258;2023-02-02T08:30:44;-16017.63;;;3.00;76.69
65157;BME280;52745;49.794;18.258;2023-02-02T08:33:11;-16019.28;;;3.06;76.70
65157;BME280;52745;49.794;18.258;2023-02-02T08:35:42;-16017.91;;;3.01;76.66
65157;BME280;52745;49.794;18.258;2023-02-02T08:38:09;-16018.59;;;3.04;76.87
65157;BME280;52745;49.794;18.258;2023-02-02T08:40:36;-16018.88;;;3.05;76.36
65157;BME280;52745;49.794;18.258;2023-02-02T08:43:03;-16019.84;;;3.08;76.74
65157;BME280;52745;49.794;18.258;2023-02-02T08:45:30;-16022.16;;;3.17;76.58
65157;BME280;52745;49.794;18.258;2023-02-02T08:47:57;-16019.69;;;3.08;76.73
65157;BME280;52745;49.794;18.258;2023-02-02T08:50:24;-16021.47;;;3.15;76.46
65157;BME280;52745;49.794;18.258;2023-02-02T08:52:50;-16022.44;;;3.18;76.48
65157;BME280;52745;49.794;18.258;2023-02-02T08:55:17;-16022.03;;;3.17;76.49
65157;BME280;52745;49.794;18.258;2023-02-02T08:57:44;-16021.75;;;3.16;76.64
65157;BME280;52745;49.794;18.258;2023-02-02T09:00:11;-16021.88;;;3.16;76.53
65157;BME280;52745;49.794;18.258;2023-02-02T09:02:38;-16022.56;;;3.19;75.96
65157;BME280;52745;49.794;18.258;2023-02-02T09:05:05;-16021.34;;;3.14;76.30
65157;BME280;52745;49.794;18.258;2023-02-02T09:07:32;-16022.56;;;3.19;75.58
65157;BME280;52745;49.794;18.258;2023-02-02T09:09:59;-16023.81;;;3.23;75.93
65157;BME280;52745;49.794;18.258;2023-02-02T09:12:26;-16023.94;;;3.24;75.41
65157;BME280;52745;49.794;18.258;2023-02-02T09:14:53;-16023.94;;;3.24;76.23
65157;BME280;52745;49.794;18.258;2023-02-02T09:17:19;-16025.03;;;3.28;75.77
65157;BME280;52745;49.794;18.258;2023-02-02T09:19:46;-16024.75;;;3.27;75.83
65157;BME280;52745;49.794;18.258;2023-02-02T09:22:13;-16023.38;;;3.22;76.12
65157;BME280;52745;49.794;18.258;2023-02-02T09:24:40;-16024.47;;;3.26;75.98
65157;BME280;52745;49.794;18.258;2023-02-02T09:27:06;-16024.88;;;3.27;75.82
65157;BME280;52745;49.794;18.258;2023-02-02T09:29:33;-16024.47;;;3.26;75.68
65157;BME280;52745;49.794;18.258;2023-02-02T09:32:00;-16025.72;;;3.30;75.80
65157;BME280;52745;49.794;18.258;2023-02-02T09:34:27;-16025.03;;;3.28;75.85
65157;BME280;52745;49.794;18.258;2023-02-02T09:36:53;-16025.84;;;3.31;76.31
65157;BME280;52745;49.794;18.258;2023-02-02T09:39:20;-16025.59;;;3.30;75.88
65157;BME280;52745;49.794;18.258;2023-02-02T09:50:02;-16032.41;;;3.56;75.15
65157;BME280;52745;49.794;18.258;2023-02-02T09:55:32;-16037.22;;;3.73;75.26
65157;BME280;52745;49.794;18.258;2023-02-02T10:03:35;-16034.75;;;3.64;75.57
65157;BME280;52745;49.794;18.258;2023-02-02T10:06:36;-16035.16;;;3.66;75.52
65157;BME280;52745;49.794;18.258;2023-02-02T10:14:41;-16038.16;;;3.77;75.26
65157;BME280;52745;49.794;18.258;2023-02-02T10:19:54;-16041.19;;;3.88;74.98
65157;BME280;52745;49.794;18.258;2023-02-02T10:22:26;-16044.59;;;4.01;74.92
65157;BME280;52745;49.794;18.258;2023-02-02T10:24:56;-16045.41;;;4.04;75.06
65157;BME280;52745;49.794;18.258;2023-02-02T10:27:36;-16046.78;;;4.09;74.92
65157;BME280;52745;49.794;18.258;2023-02-02T10:30:14;-16046.50;;;4.08;75.04
65157;BME280;52745;49.794;18.258;2023-02-02T10:32:47;-16047.75;;;4.13;74.46
65157;BME280;52745;49.794;18.258;2023-02-02T10:35:53;-16045.84;;;4.06;74.56
65157;BME280;52745;49.794;18.258;2023-02-02T10:38:37;-16047.06;;;4.10;74.47
65157;BME280;52745;49.794;18.258;2023-02-02T10:41:31;-16048.44;;;4.15;74.54
65157;BME280;52745;49.794;18.258;2023-02-02T10:44:26;-16051.03;;;4.25;74.06
65157;BME280;52745;49.794;18.258;2023-02-02T10:46:59;-16052.81;;;4.32;74.15
65157;BME280;52745;49.794;18.258;2023-02-02T10:49:33;-16053.75;;;4.35;74.23
65157;BME280;52745;49.794;18.258;2023-02-02T10:57:32;-16050.88;;;4.25;73.86
65157;BME280;52745;49.794;18.258;2023-02-02T11:00:24;-16052.53;;;4.31;74.10
65157;BME280;52745;49.794;18.258;2023-02-02T11:02:53;-16053.75;;;4.35;74.10
65157;BME280;52745;49.794;18.258;2023-02-02T11:05:27;-16056.09;;;4.44;74.00
65157;BME280;52745;49.794;18.258;2023-02-02T11:10:44;-16057.72;;;4.50;73.56
65157;BME280;52745;49.794;18.258;2023-02-02T11:13:16;-16060.19;;;4.60;73.22
65157;BME280;52745;49.794;18.258;2023-02-02T11:15:45;-16063.34;;;4.71;73.03
65157;BME280;52745;49.794;18.258;2023-02-02T11:18:32;-16064.16;;;4.74;72.74
65157;BME280;52745;49.794;18.258;2023-02-02T11:20:59;-16064.44;;;4.75;72.32
65157;BME280;52745;49.794;18.258;2023-02-02T11:23:26;-16068.81;;;4.92;72.21
65157;BME280;52745;49.794;18.258;2023-02-02T11:25:59;-16071.69;;;5.03;71.73
65157;BME280;52745;49.794;18.258;2023-02-02T11:28:30;-16069.50;;;4.94;70.62
65157;BME280;52745;49.794;18.258;2023-02-02T11:31:00;-16065.53;;;4.80;71.10
65157;BME280;52745;49.794;18.258;2023-02-02T11:33:33;-16066.47;;;4.83;70.90
65157;BME280;52745;49.794;18.258;2023-02-02T11:38:28;-16069.63;;;4.95;70.47
65157;BME280;52745;49.794;18.258;2023-02-02T11:41:01;-16071.53;;;5.02;70.82
65157;BME280;52745;49.794;18.258;2023-02-02T11:43:32;-16072.09;;;5.04;70.10
65157;BME280;52745;49.794;18.258;2023-02-02T11:46:12;-16076.88;;;5.22;69.97
65157;BME280;52745;49.794;18.258;2023-02-02T11:48:58;-16078.66;;;5.29;69.03
65157;BME280;52745;49.794;18.258;2023-02-02T11:51:27;-16074.69;;;5.14;67.92
65157;BME280;52745;49.794;18.258;2023-02-02T11:54:09;-16075.38;;;5.16;68.63
65157;BME280;52745;49.794;18.258;2023-02-02T11:56:41;-16077.41;;;5.24;67.88
65157;BME280;52745;49.794;18.258;2023-02-02T11:59:35;-16077.69;;;5.25;66.79
65157;BME280;52745;49.794;18.258;2023-02-02T12:04:39;-16074.56;;;5.13;64.77
65157;BME280;52745;49.794;18.258;2023-02-02T12:07:24;-16073.19;;;5.08;64.04
65157;BME280;52745;49.794;18.258;2023-02-02T12:09:58;-16075.09;;;5.15;62.49
65157;BME280;52745;49.794;18.258;2023-02-02T12:12:36;-16077.69;;;5.25;62.50
65157;BME280;52745;49.794;18.258;2023-02-02T12:15:21;-16080.03;;;5.34;62.35
65157;BME280;52745;49.794;18.258;2023-02-02T12:18:05;-16075.25;;;5.16;61.99
65157;BME280;52745;49.794;18.258;2023-02-02T12:29:33;-16067.97;;;4.89;62.87
65157;BME280;52745;49.794;18.258;2023-02-02T12:43:44;-16071.53;;;5.02;60.86
65157;BME280;52745;49.794;18.258;2023-02-02T12:50:06;-16069.91;;;4.96;61.11
65157;BME280;52745;49.794;18.258;2023-02-02T12:57:59;-16076.88;;;5.22;60.83
65157;BME280;52745;49.794;18.258;2023-02-02T13:05:59;-16074.81;;;5.14;60.67
65157;BME280;52745;49.794;18.258;2023-02-02T13:14:21;-16072.78;;;5.07;60.09
65157;BME280;52745;49.794;18.258;2023-02-02T13:16:56;-16073.47;;;5.09;59.98
65157;BME280;52745;49.794;18.258;2023-02-02T13:19:28;-16072.09;;;5.04;60.51
65157;BME280;52745;49.794;18.258;2023-02-02T13:21:59;-16070.72;;;4.99;60.68
65157;BME280;52745;49.794;18.258;2023-02-02T13:24:30;-16068.94;;;4.92;61.08
65157;BME280;52745;49.794;18.258;2023-02-02T13:27:00;-16069.63;;;4.95;60.96
65157;BME280;52745;49.794;18.258;2023-02-02T13:29:41;-16071.69;;;5.03;60.81
65157;BME280;52745;49.794;18.258;2023-02-02T13:34:54;-16064.44;;;4.75;61.42
65157;BME280;52745;49.794;18.258;2023-02-02T13:40:29;-16061.84;;;4.66;60.95
65157;BME280;52745;49.794;18.258;2023-02-02T13:52:08;-16062.66;;;4.69;62.29
65157;BME280;52745;49.794;18.258;2023-02-02T13:54:26;-16061.69;;;4.65;62.43
65157;BME280;52745;49.794;18.258;2023-02-02T14:00:22;-16065.25;;;4.79;61.17
65157;BME280;52745;49.794;18.258;2023-02-02T14:02:40;-16062.94;;;4.70;61.25
65157;BME280;52745;49.794;18.258;2023-02-02T14:08:20;-16062.38;;;4.68;60.97
65157;BME280;52745;49.794;18.258;2023-02-02T14:13:44;-16061.00;;;4.63;61.26
65157;BME280;52745;49.794;18.258;2023-02-02T14:18:58;-16058.00;;;4.51;61.66
65157;BME280;52745;49.794;18.258;2023-02-02T14:45:40;-16030.91;;;3.50;78.14
65157;BME280;52745;49.794;18.258;2023-02-02T14:50:56;-16029.41;;;3.44;77.70
65157;BME280;52745;49.794;18.258;2023-02-02T14:53:36;-16029.41;;;3.44;78.03
65157;BME280;52745;49.794;18.258;2023-02-02T14:56:08;-16031.88;;;3.53;77.36
65157;BME280;52745;49.794;18.258;2023-02-02T14:58:37;-16034.47;;;3.63;76.91
65157;BME280;52745;49.794;18.258;2023-02-02T15:06:38;-16045.84;;;4.06;74.58
65157;BME280;52745;49.794;18.258;2023-02-02T15:15:35;-16052.41;;;4.30;73.09
65157;BME280;52745;49.794;18.258;2023-02-02T15:20:10;-16055.69;;;4.43;71.25
65157;BME280;52745;49.794;18.258;2023-02-02T15:22:54;-16048.97;;;4.18;72.57
65157;BME280;52745;49.794;18.258;2023-02-02T15:25:25;-16043.91;;;3.99;72.23
65157;BME280;52745;49.794;18.258;2023-02-02T15:30:29;-16035.28;;;3.66;71.43
65157;BME280;52745;49.794;18.258;2023-02-02T15:33:04;-16033.50;;;3.60;72.04
65157;BME280;52745;49.794;18.258;2023-02-02T15:35:32;-16033.25;;;3.59;71.09
65157;BME280;52745;49.794;18.258;2023-02-02T15:38:05;-16031.88;;;3.53;70.86
65157;BME280;52745;49.794;18.258;2023-02-02T15:40:35;-16033.09;;;3.58;70.48
65157;BME280;52745;49.794;18.258;2023-02-02T15:43:04;-16033.38;;;3.59;69.51
65157;BME280;52745;49.794;18.258;2023-02-02T15:50:52;-16034.34;;;3.63;68.79
65157;BME280;52745;49.794;18.258;2023-02-02T15:58:51;-16031.31;;;3.51;68.09
65157;BME280;52745;49.794;18.258;2023-02-02T16:01:21;-16031.88;;;3.53;67.67
65157;BME280;52745;49.794;18.258;2023-02-02T16:06:16;-16032.41;;;3.56;67.62
65157;BME280;52745;49.794;18.258;2023-02-02T16:08:44;-16033.38;;;3.59;67.04
65157;BME280;52745;49.794;18.258;2023-02-02T16:11:15;-16032.69;;;3.57;67.39
65157;BME280;52745;49.794;18.258;2023-02-02T16:16:29;-16034.75;;;3.64;67.13
65157;BME280;52745;49.794;18.258;2023-02-02T16:19:10;-16034.06;;;3.62;67.81